createdAt,value
2022-11-29T00:00:59.637Z,76.3
2022-11-29T00:02:16.807Z,76.7
2022-11-29T00:03:33.692Z,77
2022-11-29T00:04:50.635Z,77.7
2022-11-29T00:06:07.661Z,78.2
2022-11-29T00:07:24.663Z,78.4
2022-11-29T00:08:41.665Z,78.6
2022-11-29T00:09:58.644Z,78.6
2022-11-29T00:11:15.641Z,78.5
2022-11-29T00:12:32.643Z,78.6
2022-11-29T00:13:49.667Z,78.5
2022-11-29T00:15:06.855Z,78.2
2022-11-29T00:16:23.720Z,78.1
2022-11-29T00:17:40.663Z,78.1
2022-11-29T00:18:57.700Z,78.1
2022-11-29T00:20:14.775Z,77.9
2022-11-29T00:21:31.646Z,77.7
2022-11-29T00:22:48.660Z,77.6
2022-11-29T00:24:05.676Z,77.6
2022-11-29T00:25:22.667Z,77.8
2022-11-29T00:26:39.720Z,78.1
2022-11-29T00:27:57.056Z,78.1
2022-11-29T00:29:13.689Z,77.7
2022-11-29T00:30:30.733Z,77.3
2022-11-29T00:31:47.660Z,77.4
2022-11-29T00:33:04.763Z,77.3
2022-11-29T00:34:21.806Z,77.1
2022-11-29T00:35:38.698Z,76.7
2022-11-29T00:36:55.677Z,76.4
2022-11-29T00:38:12.672Z,76.4
2022-11-29T00:39:29.706Z,76.2
2022-11-29T00:40:46.727Z,76.1
2022-11-29T00:42:03.684Z,76.2
2022-11-29T00:43:20.711Z,76.3
2022-11-29T00:44:37.677Z,76.3
2022-11-29T00:45:54.795Z,76.4
2022-11-29T00:47:11.691Z,76.8
2022-11-29T00:48:28.690Z,77.3
2022-11-29T00:49:45.720Z,77.5
2022-11-29T00:51:02.756Z,77.7
2022-11-29T00:52:19.698Z,77.7
2022-11-29T00:53:36.751Z,78
2022-11-29T00:54:53.681Z,78
2022-11-29T00:56:10.777Z,78
2022-11-29T00:57:27.736Z,78.4
2022-11-29T00:58:44.695Z,78.7
2022-11-29T01:00:01.851Z,78.9
2022-11-29T01:01:18.781Z,78.7
2022-11-29T01:02:35.797Z,78.2
2022-11-29T01:03:52.727Z,77.8
2022-11-29T01:05:09.783Z,77.2
2022-11-29T01:06:27.343Z,76.7
2022-11-29T01:07:44.805Z,76.5
2022-11-29T01:09:01.877Z,76.2
2022-11-29T01:10:18.738Z,76.2
2022-11-29T01:11:35.699Z,76.3
2022-11-29T01:12:52.707Z,76.2
2022-11-29T01:14:09.755Z,76.1
2022-11-29T01:15:26.755Z,75.7
2022-11-29T01:16:43.799Z,75.7
2022-11-29T01:18:00.729Z,75.8
2022-11-29T01:19:17.757Z,75.9
2022-11-29T01:20:34.754Z,75.7
2022-11-29T01:21:51.778Z,75.4
2022-11-29T01:23:08.756Z,75.2
2022-11-29T01:24:25.760Z,75
2022-11-29T01:25:42.749Z,74.5
2022-11-29T01:26:59.743Z,74.2
2022-11-29T01:28:16.787Z,74.4
2022-11-29T01:29:33.730Z,74.6
2022-11-29T01:30:50.827Z,74.4
2022-11-29T01:32:07.795Z,74.4
2022-11-29T01:33:24.761Z,74.4
2022-11-29T01:34:42.415Z,74.2
2022-11-29T01:35:58.785Z,74.1
2022-11-29T01:37:15.808Z,73.8
2022-11-29T01:38:32.741Z,74.1
2022-11-29T01:39:49.778Z,74.6
2022-11-29T01:41:06.785Z,75.2
2022-11-29T01:42:23.771Z,75.4
2022-11-29T01:43:40.783Z,75.2
2022-11-29T01:44:57.760Z,74.5
2022-11-29T01:46:14.788Z,73.9
2022-11-29T01:47:31.778Z,73.9
2022-11-29T01:48:48.754Z,74.3
2022-11-29T01:50:05.865Z,74.8
2022-11-29T01:51:22.850Z,74.9
2022-11-29T01:52:39.760Z,74.8
2022-11-29T01:53:56.849Z,74.8
2022-11-29T01:55:13.797Z,74.5
2022-11-29T01:56:30.765Z,74.5
2022-11-29T01:57:47.785Z,74.7
2022-11-29T01:59:04.805Z,75.2
2022-11-29T02:00:22.088Z,75.4
2022-11-29T02:01:38.948Z,75.5
2022-11-29T02:02:55.833Z,75.3
2022-11-29T02:04:12.802Z,74.7
2022-11-29T02:05:29.812Z,74.2
2022-11-29T02:06:47.460Z,73.8
2022-11-29T02:08:04.796Z,73.8
2022-11-29T02:09:21.881Z,73.8
2022-11-29T02:10:38.806Z,73.7
2022-11-29T02:11:55.804Z,73.4
2022-11-29T02:13:12.796Z,73.3
2022-11-29T02:14:29.803Z,73.2
2022-11-29T02:15:47.003Z,73
2022-11-29T02:17:03.792Z,72.9
2022-11-29T02:18:20.821Z,72.8
2022-11-29T02:19:37.798Z,72.5
2022-11-29T02:20:54.847Z,72.3
2022-11-29T02:22:11.855Z,72.6
2022-11-29T02:23:28.863Z,73.4
2022-11-29T02:24:46.108Z,73.8
2022-11-29T02:26:02.851Z,74.2
2022-11-29T02:27:19.852Z,74.5
2022-11-29T02:28:36.851Z,74.7
2022-11-29T02:29:53.840Z,74.8
2022-11-29T02:31:10.864Z,75
2022-11-29T02:32:27.846Z,74.9
2022-11-29T02:33:44.861Z,74.9
2022-11-29T02:35:01.878Z,74.7
2022-11-29T02:36:18.838Z,74.4
2022-11-29T02:37:35.886Z,74.1
2022-11-29T02:38:52.934Z,73.8
2022-11-29T02:40:09.871Z,73.7
2022-11-29T02:41:26.837Z,73.9
2022-11-29T02:42:43.823Z,74
2022-11-29T02:44:00.862Z,73.8
2022-11-29T02:45:17.824Z,73.4
2022-11-29T02:46:34.890Z,73.1
2022-11-29T02:47:51.875Z,72.9
2022-11-29T02:49:08.896Z,72.9
2022-11-29T02:50:25.925Z,72.8
2022-11-29T02:51:42.839Z,72.9
2022-11-29T02:52:59.899Z,73.2
2022-11-29T02:54:16.901Z,73.3
2022-11-29T02:55:33.927Z,73.5
2022-11-29T02:56:50.856Z,73.6
2022-11-29T02:58:07.885Z,73.1
2022-11-29T02:59:24.994Z,72.9
2022-11-29T03:00:41.893Z,72.8
2022-11-29T03:01:58.892Z,72.9
2022-11-29T03:03:15.884Z,73
2022-11-29T03:04:32.907Z,73
2022-11-29T03:05:49.924Z,72.9
2022-11-29T03:07:06.921Z,73.1
2022-11-29T03:08:23.901Z,73.1
2022-11-29T03:09:40.903Z,73.2
2022-11-29T03:10:57.876Z,73.4
2022-11-29T03:12:14.874Z,73.2
2022-11-29T03:13:31.890Z,73.2
2022-11-29T03:14:48.978Z,72.9
2022-11-29T03:16:06.156Z,73.2
2022-11-29T03:17:22.916Z,73.2
2022-11-29T03:18:39.924Z,73
2022-11-29T03:19:56.931Z,73.1
2022-11-29T03:21:13.891Z,73.6
2022-11-29T03:22:30.947Z,73.6
2022-11-29T03:23:47.978Z,74
2022-11-29T03:25:05.019Z,74.4
2022-11-29T03:26:21.913Z,74.5
2022-11-29T03:27:38.944Z,74.6
2022-11-29T03:28:55.882Z,74.9
2022-11-29T03:30:12.904Z,75.2
2022-11-29T03:31:30.034Z,75.3
2022-11-29T03:32:46.973Z,74.9
2022-11-29T03:34:03.931Z,74.7
2022-11-29T03:35:20.903Z,74.6
2022-11-29T03:36:38.140Z,74.3
2022-11-29T03:37:54.939Z,74
2022-11-29T03:39:11.931Z,73.8
2022-11-29T03:40:28.900Z,73.6
2022-11-29T03:41:45.944Z,73.7
2022-11-29T03:43:03.256Z,74
2022-11-29T03:44:19.912Z,74.7
2022-11-29T03:45:37.015Z,75
2022-11-29T03:46:53.976Z,75.4
2022-11-29T03:48:10.989Z,75.5
2022-11-29T03:49:27.951Z,75.5
2022-11-29T03:50:44.937Z,75.8
2022-11-29T03:52:02.200Z,76.1
2022-11-29T03:53:18.939Z,76.2
2022-11-29T03:54:35.996Z,76.5
2022-11-29T03:55:52.952Z,76.5
2022-11-29T03:57:09.971Z,76.5
2022-11-29T03:58:26.937Z,76.6
2022-11-29T03:59:43.983Z,76.9
2022-11-29T04:01:00.930Z,76.9
2022-11-29T04:02:18.310Z,77.1
2022-11-29T04:03:34.952Z,77
2022-11-29T04:04:52.783Z,76.9
2022-11-29T04:06:09.956Z,76.8
2022-11-29T04:07:27.335Z,76.9
2022-11-29T04:08:44.020Z,77
2022-11-29T04:10:00.977Z,77
2022-11-29T04:11:17.941Z,77.4
2022-11-29T04:12:34.970Z,77.6
2022-11-29T04:13:51.949Z,77.9
2022-11-29T04:15:12.813Z,77.6
2022-11-29T04:16:26.019Z,77.6
2022-11-29T04:17:42.979Z,77.8
2022-11-29T04:18:59.943Z,77.9
2022-11-29T04:20:16.973Z,78.3
2022-11-29T04:21:34.004Z,78.4
2022-11-29T04:22:50.979Z,78.6
2022-11-29T04:24:07.970Z,78.5
2022-11-29T04:25:25.433Z,78.2
2022-11-29T04:26:41.961Z,78
2022-11-29T04:27:58.971Z,77.9
2022-11-29T04:29:15.961Z,77.8
2022-11-29T04:30:33.026Z,77.9
2022-11-29T04:31:49.974Z,78
2022-11-29T04:33:06.983Z,77.7
2022-11-29T04:34:24.087Z,77.5
2022-11-29T04:35:41.042Z,77.2
2022-11-29T04:36:58.003Z,76.9
2022-11-29T04:38:14.968Z,76.6
2022-11-29T04:39:31.972Z,76.7
2022-11-29T04:40:49.039Z,76.8
2022-11-29T04:42:06.011Z,77
2022-11-29T04:43:22.982Z,77.2
2022-11-29T04:44:40.001Z,77.1
2022-11-29T04:45:57.108Z,77.1
2022-11-29T04:47:14.059Z,77.3
2022-11-29T04:48:31.013Z,77.5
2022-11-29T04:49:47.988Z,77.5
2022-11-29T04:51:05.075Z,77.3
2022-11-29T04:52:22.032Z,77.4
2022-11-29T04:53:39.022Z,77.5
2022-11-29T04:54:55.999Z,77.9
2022-11-29T04:56:13.028Z,78
2022-11-29T04:57:30.021Z,77.9
2022-11-29T04:58:47.030Z,77.7
2022-11-29T05:00:04.041Z,77.2
2022-11-29T05:01:21.159Z,76.8
2022-11-29T05:02:38.013Z,76.6
2022-11-29T05:03:57.172Z,76.4
2022-11-29T05:05:12.039Z,76.1
2022-11-29T05:06:29.072Z,75.7
2022-11-29T05:07:46.059Z,75.9
2022-11-29T05:09:03.027Z,76.2
2022-11-29T05:10:20.022Z,76.6
2022-11-29T05:11:37.119Z,77
2022-11-29T05:12:54.036Z,77.2
2022-11-29T05:14:11.051Z,77.6
2022-11-29T05:15:28.115Z,77.5
2022-11-29T05:16:45.064Z,77.1
2022-11-29T05:18:02.297Z,76.8
2022-11-29T05:19:19.028Z,76.4
2022-11-29T05:20:36.024Z,76.4
2022-11-29T05:21:53.040Z,76.4
2022-11-29T05:23:10.344Z,76.4
2022-11-29T05:24:27.038Z,76.3
2022-11-29T05:25:44.084Z,76.1
2022-11-29T05:27:01.081Z,76
2022-11-29T05:28:18.053Z,76
2022-11-29T05:29:35.085Z,76.1
2022-11-29T05:30:52.054Z,75.9
2022-11-29T05:32:09.083Z,75.7
2022-11-29T05:33:26.081Z,76
2022-11-29T05:34:43.062Z,76.4
2022-11-29T05:36:00.090Z,76.9
2022-11-29T05:37:17.062Z,77.5
2022-11-29T05:38:34.072Z,78.1
2022-11-29T05:39:51.057Z,78.6
2022-11-29T05:41:08.079Z,78.8
2022-11-29T05:42:25.083Z,78.8
2022-11-29T05:43:42.135Z,79
2022-11-29T05:44:59.072Z,79.1
2022-11-29T05:46:16.146Z,78.7
2022-11-29T05:47:33.091Z,78.5
2022-11-29T05:48:50.131Z,78.3
2022-11-29T05:50:07.071Z,78.1
2022-11-29T05:51:24.152Z,78.1
2022-11-29T05:52:41.065Z,78.3
2022-11-29T05:53:58.158Z,78.1
2022-11-29T05:55:15.078Z,78.3
2022-11-29T05:56:32.077Z,78.4
2022-11-29T05:57:49.129Z,78.4
2022-11-29T05:59:06.168Z,78.7
2022-11-29T06:00:23.090Z,79
2022-11-29T06:01:40.166Z,78.8
2022-11-29T06:02:57.130Z,78.8
2022-11-29T06:04:15.042Z,78.5
2022-11-29T06:05:31.126Z,78.6
2022-11-29T06:06:48.110Z,78.6
2022-11-29T06:08:05.167Z,78.6
2022-11-29T06:09:22.116Z,78.6
2022-11-29T06:10:39.098Z,78.9
2022-11-29T06:11:56.110Z,78.9
2022-11-29T06:13:13.184Z,78.9
2022-11-29T06:14:30.838Z,78.6
2022-11-29T06:15:48.657Z,78.6
2022-11-29T06:17:05.096Z,78.4
2022-11-29T06:18:22.114Z,78.3
2022-11-29T06:19:39.098Z,78.1
2022-11-29T06:20:56.160Z,77.9
2022-11-29T06:22:13.105Z,77.7
2022-11-29T06:23:30.129Z,77.7
2022-11-29T06:24:47.492Z,78
2022-11-29T06:26:04.488Z,78.4
2022-11-29T06:27:21.169Z,78.6
2022-11-29T06:28:38.182Z,78.3
2022-11-29T06:29:55.209Z,78.2
2022-11-29T06:31:12.162Z,78.3
2022-11-29T06:32:29.196Z,78.2
2022-11-29T06:33:46.125Z,78.3
2022-11-29T06:35:03.182Z,78.3
2022-11-29T06:36:20.132Z,78.1
2022-11-29T06:37:37.420Z,77.8
2022-11-29T06:38:54.136Z,77.3
2022-11-29T06:40:11.308Z,77.3
2022-11-29T06:41:28.133Z,77.4
2022-11-29T06:42:45.160Z,77.5
2022-11-29T06:44:02.394Z,77.8
2022-11-29T06:45:19.143Z,78
2022-11-29T06:46:36.213Z,77.9
2022-11-29T06:47:53.173Z,77.4
2022-11-29T06:49:10.151Z,77.4
2022-11-29T06:50:27.195Z,77.5
2022-11-29T06:51:44.172Z,77.4
2022-11-29T06:53:01.152Z,77.6
2022-11-29T06:54:18.140Z,77.6
2022-11-29T06:55:35.217Z,77.8
2022-11-29T06:56:52.178Z,78.2
2022-11-29T06:58:09.193Z,78.3
2022-11-29T06:59:26.441Z,78.4
2022-11-29T07:00:43.257Z,78.5
2022-11-29T07:02:00.254Z,78.7
2022-11-29T07:03:17.181Z,78.7
2022-11-29T07:04:34.186Z,78.5
2022-11-29T07:05:51.190Z,78.4
2022-11-29T07:07:08.323Z,78.4
2022-11-29T07:08:25.161Z,78.5
2022-11-29T07:09:42.229Z,78.5
2022-11-29T07:10:59.233Z,78
2022-11-29T07:12:25.218Z,77.7
2022-11-29T07:13:36.191Z,77.4
2022-11-29T07:14:53.199Z,77.3
2022-11-29T07:16:10.257Z,77.3
2022-11-29T07:17:27.206Z,77.4
2022-11-29T07:18:44.183Z,77.3
2022-11-29T07:20:01.189Z,77.2
2022-11-29T07:21:18.232Z,77.1
2022-11-29T07:22:35.277Z,77
2022-11-29T07:23:52.196Z,76.7
2022-11-29T07:25:09.183Z,76.5
2022-11-29T07:26:26.200Z,76.3
2022-11-29T07:27:43.224Z,76.1
2022-11-29T07:29:00.190Z,75.9
2022-11-29T07:30:17.234Z,75.7
2022-11-29T07:31:34.303Z,75.7
2022-11-29T07:32:53.735Z,75.8
2022-11-29T07:34:08.236Z,75.9
2022-11-29T07:35:25.223Z,75.7
2022-11-29T07:36:42.269Z,75.8
2022-11-29T07:37:59.210Z,75.7
2022-11-29T07:39:16.205Z,75.8
2022-11-29T07:40:37.513Z,75.7
2022-11-29T07:41:50.333Z,75.6
2022-11-29T07:43:07.273Z,75.3
2022-11-29T07:44:24.229Z,75.3
2022-11-29T07:45:41.280Z,75.3
2022-11-29T07:46:58.479Z,75.7
2022-11-29T07:48:15.228Z,76
2022-11-29T07:49:32.336Z,75.7
2022-11-29T07:50:49.329Z,75.6
2022-11-29T07:52:06.229Z,75.9
2022-11-29T07:53:23.505Z,75.9
2022-11-29T07:54:40.275Z,76.1
2022-11-29T07:55:57.266Z,75.6
2022-11-29T07:57:14.276Z,75.3
2022-11-29T07:58:34.153Z,75.2
2022-11-29T07:59:51.356Z,74.9
2022-11-29T08:01:08.278Z,74.7
2022-11-29T08:02:25.294Z,74.3
2022-11-29T08:03:42.233Z,74.1
2022-11-29T08:04:59.266Z,74.3
2022-11-29T08:06:16.298Z,74.1
2022-11-29T08:07:33.287Z,74.4
2022-11-29T08:08:50.285Z,74.7
2022-11-29T08:10:07.360Z,74.8
2022-11-29T08:11:24.242Z,74.6
2022-11-29T08:12:41.238Z,74.8
2022-11-29T08:13:58.344Z,74.7
2022-11-29T08:15:15.268Z,74.2
2022-11-29T08:16:32.405Z,73.8
2022-11-29T08:17:49.317Z,73.4
2022-11-29T08:19:06.613Z,73.3
2022-11-29T08:20:23.376Z,73.5
2022-11-29T08:21:40.366Z,73.5
2022-11-29T08:22:57.266Z,73.5
2022-11-29T08:24:14.325Z,73.4
2022-11-29T08:25:31.313Z,73.8
2022-11-29T08:26:48.271Z,73.7
2022-11-29T08:28:05.318Z,73.6
2022-11-29T08:29:22.461Z,73.5
2022-11-29T08:30:39.294Z,73.8
2022-11-29T08:31:56.433Z,74.2
2022-11-29T08:33:13.331Z,74.6
2022-11-29T08:34:30.381Z,75
2022-11-29T08:35:47.320Z,75.3
2022-11-29T08:37:04.341Z,75.2
2022-11-29T08:38:21.403Z,74.9
2022-11-29T08:39:38.325Z,75
2022-11-29T08:40:55.287Z,74.7
2022-11-29T08:42:12.301Z,74.7
2022-11-29T08:43:29.294Z,74.8
2022-11-29T08:44:46.552Z,74.7
2022-11-29T08:46:03.381Z,74.3
2022-11-29T08:47:20.328Z,74.3
2022-11-29T08:48:37.331Z,74.6
2022-11-29T08:49:54.463Z,74.9
2022-11-29T08:51:11.479Z,74.7
2022-11-29T08:52:28.352Z,74.3
2022-11-29T08:53:45.574Z,74.1
2022-11-29T08:55:03.382Z,73.9
2022-11-29T08:57:40.668Z,73.3
2022-11-29T08:58:53.331Z,73.8
2022-11-29T09:00:10.508Z,74
2022-11-29T09:01:27.411Z,73.9
2022-11-29T09:02:44.425Z,73.6
2022-11-29T09:04:01.400Z,73.5
2022-11-29T09:05:18.461Z,73.6
2022-11-29T09:06:35.359Z,73.4
2022-11-29T09:07:52.387Z,73.1
2022-11-29T09:09:09.380Z,73.2
2022-11-29T09:10:26.367Z,73
2022-11-29T09:11:46.950Z,72.9
2022-11-29T09:13:00.535Z,73.1
2022-11-29T09:14:17.427Z,73.5
2022-11-29T09:15:34.358Z,73.6
2022-11-29T09:16:51.360Z,73.7
2022-11-29T09:18:08.391Z,73.5
2022-11-29T09:19:25.354Z,73.2
2022-11-29T09:20:42.619Z,73.5
2022-11-29T09:21:59.432Z,73.6
2022-11-29T09:23:16.341Z,73.5
2022-11-29T09:24:33.408Z,73.3
2022-11-29T09:25:50.357Z,72.9
2022-11-29T09:27:08.184Z,73
2022-11-29T09:28:24.417Z,72.9
2022-11-29T09:29:41.454Z,73.1
2022-11-29T09:30:58.379Z,73.5
2022-11-29T09:32:15.375Z,73.3
2022-11-29T09:33:32.391Z,73.1
2022-11-29T09:34:49.551Z,72.9
2022-11-29T09:36:06.454Z,73.4
2022-11-29T09:37:23.384Z,73.8
2022-11-29T09:38:40.352Z,74.1
2022-11-29T09:39:57.460Z,74.4
2022-11-29T09:41:14.409Z,74.6
2022-11-29T09:42:31.374Z,74.8
2022-11-29T09:43:48.428Z,74.5
2022-11-29T09:45:05.480Z,74.2
2022-11-29T09:46:22.524Z,73.7
2022-11-29T09:47:39.352Z,73.8
2022-11-29T09:48:56.467Z,73.7
2022-11-29T09:50:13.413Z,73.4
2022-11-29T09:51:30.422Z,73.2
2022-11-29T09:52:47.417Z,73.2
2022-11-29T09:54:04.441Z,73.7
2022-11-29T09:55:21.401Z,73.7
2022-11-29T09:56:38.461Z,73.8
2022-11-29T09:57:55.705Z,73.7
2022-11-29T09:59:12.401Z,73.7
2022-11-29T10:00:29.412Z,73.8
2022-11-29T10:01:46.503Z,73.5
2022-11-29T10:03:03.667Z,73.6
2022-11-29T10:04:20.637Z,73.4
2022-11-29T10:05:37.524Z,73
2022-11-29T10:06:54.424Z,73.2
2022-11-29T10:08:11.397Z,73
2022-11-29T10:09:32.297Z,73
2022-11-29T10:10:45.708Z,72.8
2022-11-29T10:12:02.601Z,72.7
2022-11-29T10:13:19.437Z,72.7
2022-11-29T10:14:36.416Z,72.8
2022-11-29T10:15:53.427Z,72.6
2022-11-29T10:17:10.444Z,72.9
2022-11-29T10:18:27.451Z,72.9
2022-11-29T10:19:44.497Z,72.8
2022-11-29T10:21:01.480Z,72.5
2022-11-29T10:22:18.575Z,72.2
2022-11-29T10:23:35.591Z,71.9
2022-11-29T10:24:52.417Z,71.6
2022-11-29T10:26:09.409Z,71.6
2022-11-29T10:27:26.422Z,71.2
2022-11-29T10:28:43.454Z,70.8
2022-11-29T10:30:00.489Z,70.9
2022-11-29T10:31:17.469Z,71.5
2022-11-29T10:32:34.458Z,71.7
2022-11-29T10:33:51.459Z,71.7
2022-11-29T10:35:08.454Z,71.5
2022-11-29T10:36:25.443Z,71.2
2022-11-29T10:37:43.908Z,71.5
2022-11-29T10:38:59.494Z,71.7
2022-11-29T10:40:16.618Z,71.9
2022-11-29T10:41:33.493Z,71.9
2022-11-29T10:42:50.512Z,72
2022-11-29T10:44:07.442Z,72
2022-11-29T10:45:24.464Z,72.2
2022-11-29T10:46:41.458Z,72.4
2022-11-29T10:47:58.485Z,72.2
2022-11-29T10:49:15.483Z,72
2022-11-29T10:50:32.524Z,71.6
2022-11-29T10:51:49.624Z,71.6
2022-11-29T10:53:06.626Z,71.6
2022-11-29T10:54:23.501Z,71.3
2022-11-29T10:55:40.556Z,70.8
2022-11-29T10:56:57.446Z,70.8
2022-11-29T10:58:14.505Z,71.3
2022-11-29T10:59:31.534Z,71.5
2022-11-29T11:00:48.558Z,71.5
2022-11-29T11:02:05.718Z,71.4
2022-11-29T11:03:22.633Z,71.4
2022-11-29T11:04:39.503Z,71.5
2022-11-29T11:05:56.574Z,71.5
2022-11-29T11:07:13.491Z,71.6
2022-11-29T11:08:30.567Z,71.8
2022-11-29T11:09:47.503Z,71.9
2022-11-29T11:11:05.238Z,71.4
2022-11-29T11:12:22.658Z,70.7
2022-11-29T11:13:39.461Z,70.3
2022-11-29T11:14:56.531Z,69.9
2022-11-29T11:16:13.703Z,69.8
2022-11-29T11:17:30.570Z,69.6
2022-11-29T11:18:47.818Z,69.2
2022-11-29T11:20:04.737Z,68.9
2022-11-29T11:21:21.546Z,68.9
2022-11-29T11:22:38.501Z,69
2022-11-29T11:23:55.629Z,69.1
2022-11-29T11:25:12.564Z,69.5
2022-11-29T11:26:29.483Z,69.6
2022-11-29T11:27:46.541Z,69.7
2022-11-29T11:29:03.706Z,70.1
2022-11-29T11:30:20.582Z,70.1
2022-11-29T11:31:37.510Z,70
2022-11-29T11:32:54.529Z,70
2022-11-29T11:34:11.603Z,70
2022-11-29T11:35:28.496Z,69.9
2022-11-29T11:36:45.564Z,69.7
2022-11-29T11:38:02.632Z,69.3
2022-11-29T11:39:19.555Z,69
2022-11-29T11:40:36.574Z,69
2022-11-29T11:41:53.529Z,69
2022-11-29T11:43:10.510Z,69
2022-11-29T11:44:46.324Z,68.9
2022-11-29T11:45:44.754Z,68.5
2022-11-29T11:47:01.537Z,68.1
2022-11-29T11:48:18.594Z,68.3
2022-11-29T11:49:35.584Z,68.5
2022-11-29T11:50:52.532Z,68.5
2022-11-29T11:52:09.610Z,68.5
2022-11-29T11:53:26.526Z,68.4
2022-11-29T11:54:43.955Z,68.4
2022-11-29T11:56:00.544Z,68.5
2022-11-29T11:57:17.527Z,68.4
2022-11-29T11:58:34.590Z,68.1
2022-11-29T11:59:51.607Z,67.7
2022-11-29T12:01:08.917Z,67.8
2022-11-29T12:02:25.843Z,67.9
2022-11-29T12:03:42.691Z,67.8
2022-11-29T12:04:59.579Z,67.7
2022-11-29T12:06:16.570Z,67.9
2022-11-29T12:08:05.965Z,68.2
2022-11-29T12:08:50.621Z,68.3
2022-11-29T12:10:07.620Z,68.1
2022-11-29T12:11:24.651Z,67.7
2022-11-29T12:12:41.588Z,67.8
2022-11-29T12:13:58.631Z,67.6
2022-11-29T12:15:15.601Z,67.8
2022-11-29T12:16:32.736Z,68.4
2022-11-29T12:17:49.568Z,68.7
2022-11-29T12:19:06.764Z,68.7
2022-11-29T12:20:23.616Z,68.6
2022-11-29T12:21:40.583Z,68.7
2022-11-29T12:22:57.601Z,68.7
2022-11-29T12:24:14.621Z,68.6
2022-11-29T12:25:31.790Z,68.4
2022-11-29T12:26:56.765Z,68.4
2022-11-29T12:28:05.660Z,68.5
2022-11-29T12:29:22.633Z,68.5
2022-11-29T12:30:39.589Z,68.2
2022-11-29T12:31:56.601Z,68.1
2022-11-29T12:33:13.577Z,67.7
2022-11-29T12:34:30.613Z,67.2
2022-11-29T12:35:47.610Z,67.1
2022-11-29T12:37:04.627Z,67
2022-11-29T12:38:21.609Z,67
2022-11-29T12:39:38.937Z,66.9
2022-11-29T12:40:55.607Z,66.8
2022-11-29T12:42:12.727Z,66.8
2022-11-29T12:43:29.679Z,66.7
2022-11-29T12:44:46.841Z,66.6
2022-11-29T12:46:03.856Z,66.6
2022-11-29T12:47:36.997Z,66.6
2022-11-29T12:48:37.642Z,66.3
2022-11-29T12:49:54.624Z,66.1
2022-11-29T12:51:11.606Z,66.4
2022-11-29T12:52:28.765Z,66.7
2022-11-29T12:53:45.742Z,66.7
2022-11-29T12:55:02.793Z,66.6
2022-11-29T12:56:19.635Z,66.4
2022-11-29T12:57:36.642Z,66.7
2022-11-29T12:58:53.672Z,66.7
2022-11-29T13:00:11.896Z,67.1
2022-11-29T13:01:28.699Z,67.3
2022-11-29T13:02:45.705Z,67.3
2022-11-29T13:04:02.705Z,67.1
2022-11-29T13:05:19.659Z,67
2022-11-29T13:06:36.695Z,67
2022-11-29T13:07:53.683Z,67.1
2022-11-29T13:09:10.657Z,67
2022-11-29T13:10:27.656Z,66.8
2022-11-29T13:11:44.717Z,66.9
2022-11-29T13:13:01.716Z,67.1
2022-11-29T13:14:44.666Z,67
2022-11-29T13:15:35.740Z,67.2
2022-11-29T13:16:52.724Z,67.3
2022-11-29T13:18:09.816Z,67.4
2022-11-29T13:19:26.679Z,67.4
2022-11-29T13:20:43.716Z,67.2
2022-11-29T13:22:00.732Z,66.8
2022-11-29T13:23:17.725Z,66.3
2022-11-29T13:24:38.349Z,66.1
2022-11-29T13:25:51.666Z,65.8
2022-11-29T13:27:08.887Z,66
2022-11-29T13:28:25.658Z,66.2
2022-11-29T13:29:42.794Z,66.4
2022-11-29T13:30:59.777Z,66.7
2022-11-29T13:32:16.712Z,66.4
2022-11-29T13:33:34.039Z,66.6
2022-11-29T13:34:50.949Z,66.7
2022-11-29T13:36:07.923Z,66.8
2022-11-29T13:37:24.876Z,67
2022-11-29T13:38:41.725Z,66.6
2022-11-29T13:39:58.881Z,66.5
2022-11-29T13:41:15.853Z,66.1
2022-11-29T13:42:32.865Z,66
2022-11-29T13:43:49.779Z,66.2
2022-11-29T13:45:06.917Z,66.4
2022-11-29T13:46:23.729Z,66.6
2022-11-29T13:47:40.679Z,66.8
2022-11-29T13:48:57.884Z,67
2022-11-29T13:50:14.806Z,67.4
2022-11-29T13:51:31.743Z,67.7
2022-11-29T13:52:48.758Z,67.6
2022-11-29T13:54:06.484Z,67.6
2022-11-29T13:55:23.776Z,67.5
2022-11-29T13:56:40.860Z,67.9
2022-11-29T13:59:14.776Z,68.5
2022-11-29T14:00:31.808Z,68.8
2022-11-29T14:01:48.961Z,69.2
2022-11-29T14:03:05.760Z,69.6
2022-11-29T14:04:22.751Z,69.7
2022-11-29T14:05:39.767Z,70
2022-11-29T14:06:56.739Z,70.3
2022-11-29T14:08:17.753Z,70.5
2022-11-29T14:09:30.733Z,70.3
2022-11-29T14:10:47.810Z,70.2
2022-11-29T14:12:04.811Z,70
2022-11-29T14:13:21.739Z,69.8
2022-11-29T14:14:38.717Z,69.4
2022-11-29T14:15:55.895Z,69
2022-11-29T14:17:12.790Z,68.8
2022-11-29T14:18:29.751Z,68.6
2022-11-29T14:19:46.726Z,68.4
2022-11-29T14:21:03.766Z,68.1
2022-11-29T14:22:20.767Z,67.8
2022-11-29T14:23:37.789Z,67.6
2022-11-29T14:24:54.749Z,67.6
2022-11-29T14:26:11.760Z,67.7
2022-11-29T14:27:28.728Z,67.8
2022-11-29T14:28:45.825Z,67.6
2022-11-29T14:30:03.106Z,67.8
2022-11-29T14:31:19.860Z,67.8
2022-11-29T14:32:39.274Z,67.9
2022-11-29T14:33:53.802Z,67.9
2022-11-29T14:35:10.751Z,68.1
2022-11-29T14:36:27.773Z,68.3
2022-11-29T14:37:44.764Z,68.3
2022-11-29T14:39:01.768Z,68.5
2022-11-29T14:40:18.777Z,68.7
2022-11-29T14:41:36.095Z,68.7
2022-11-29T14:42:52.796Z,68.5
2022-11-29T14:44:09.782Z,68.2
2022-11-29T14:45:26.781Z,68.2
2022-11-29T14:46:43.805Z,68.2
2022-11-29T14:48:00.784Z,68.2
2022-11-29T14:49:17.769Z,68.1
2022-11-29T14:50:34.856Z,68.2
2022-11-29T14:51:51.799Z,68.3
2022-11-29T14:53:08.786Z,68.6
2022-11-29T14:54:25.789Z,69.1
2022-11-29T14:55:42.830Z,69.6
2022-11-29T14:56:59.803Z,69.7
2022-11-29T14:58:16.915Z,70
2022-11-29T14:59:33.796Z,70.2
2022-11-29T15:00:50.851Z,70.3
2022-11-29T15:02:07.929Z,70.5
2022-11-29T15:05:28.824Z,70.2
2022-11-29T15:06:51.591Z,69.9
2022-11-29T15:08:02.851Z,69.5
2022-11-29T15:09:19.798Z,69.3
2022-11-29T15:10:36.802Z,69.2
2022-11-29T15:11:53.826Z,68.7
2022-11-29T15:13:10.848Z,68.4
2022-11-29T15:14:27.872Z,68.4
2022-11-29T15:15:44.841Z,68.5
2022-11-29T15:17:01.865Z,68.7
2022-11-29T15:18:18.822Z,68.8
2022-11-29T15:19:35.957Z,68.4
2022-11-29T15:20:52.832Z,68.3
2022-11-29T15:22:09.884Z,67.7
2022-11-29T15:23:26.853Z,67.5
2022-11-29T15:24:44.250Z,67.5
2022-11-29T15:26:00.820Z,67.1
2022-11-29T15:27:17.888Z,66.8
2022-11-29T15:28:34.898Z,66.5
2022-11-29T15:29:51.852Z,66.3
2022-11-29T15:31:08.875Z,66.2
2022-11-29T15:32:25.862Z,65.9
2022-11-29T15:33:42.901Z,65.9
2022-11-29T15:34:59.842Z,65.7
2022-11-29T15:36:16.840Z,65.7
2022-11-29T15:37:33.925Z,65.7
2022-11-29T15:38:50.869Z,65.6
2022-11-29T15:40:07.925Z,65.5
2022-11-29T15:41:24.875Z,65.5
2022-11-29T15:42:42.403Z,65.4
2022-11-29T15:43:58.954Z,65.4
2022-11-29T15:45:15.925Z,65.4
2022-11-29T15:46:32.867Z,65.6
2022-11-29T15:47:50.910Z,66.4
2022-11-29T15:49:07.915Z,66.8
2022-11-29T15:50:24.884Z,67.3
2022-11-29T15:51:41.844Z,67.8
2022-11-29T15:52:58.924Z,68.6
2022-11-29T15:54:15.903Z,69
2022-11-29T15:55:32.916Z,68.6
2022-11-29T15:56:50.281Z,68.2
2022-11-29T15:58:08.841Z,67.8
2022-11-29T15:59:23.878Z,67.1
2022-11-29T16:00:41.220Z,66.2
2022-11-29T16:01:57.975Z,66
2022-11-29T16:03:15.389Z,65.6
2022-11-29T16:04:31.945Z,65.6
2022-11-29T16:05:48.908Z,66
2022-11-29T16:07:05.865Z,66.7
2022-11-29T16:08:22.889Z,67.7
2022-11-29T16:09:41.483Z,68.1
2022-11-29T16:10:57.904Z,68.5
2022-11-29T16:12:14.894Z,69
2022-11-29T16:13:31.977Z,69.4
2022-11-29T16:14:48.905Z,69.6
2022-11-29T16:16:05.924Z,69.5
2022-11-29T16:17:22.878Z,69.6
2022-11-29T16:18:39.957Z,69.7
2022-11-29T16:19:56.918Z,69.7
2022-11-29T16:21:13.941Z,69.8
2022-11-29T16:22:30.908Z,70.2
2022-11-29T16:23:47.964Z,70.6
2022-11-29T16:25:04.956Z,71.2
2022-11-29T16:28:12.918Z,71.9
2022-11-29T16:29:29.921Z,72.2
2022-11-29T16:30:46.936Z,72.6
2022-11-29T16:32:03.974Z,72.8
2022-11-29T16:33:21.144Z,73.2
2022-11-29T16:34:37.905Z,73.6
2022-11-29T16:35:54.924Z,73.8
2022-11-29T16:37:12.032Z,74.1
2022-11-29T16:38:28.919Z,74.6
2022-11-29T16:39:45.946Z,74.9
2022-11-29T16:41:02.954Z,75.3
2022-11-29T16:42:24.832Z,75.5
2022-11-29T16:43:37.052Z,75.4
2022-11-29T16:44:53.953Z,75.3
2022-11-29T16:46:11.005Z,75.1
2022-11-29T16:47:27.917Z,75.1
2022-11-29T16:48:44.932Z,75.1
2022-11-29T16:50:02.183Z,75
2022-11-29T16:51:18.927Z,74.9
2022-11-29T16:52:36.006Z,74.4
2022-11-29T16:53:53.018Z,74.2
2022-11-29T16:55:09.965Z,74.5
2022-11-29T16:56:26.988Z,74.5
2022-11-29T16:57:43.931Z,74.4
2022-11-29T16:59:17.479Z,74.5
2022-11-29T17:00:18.134Z,74.8
2022-11-29T17:01:35.143Z,75
2022-11-29T17:02:52.042Z,75.2
2022-11-29T17:04:09.025Z,75.1
2022-11-29T17:05:25.947Z,75.1
2022-11-29T17:06:42.948Z,75.2
2022-11-29T17:08:00.010Z,74.9
2022-11-29T17:09:17.218Z,74.6
2022-11-29T17:10:34.852Z,74.4
2022-11-29T17:11:51.975Z,74.3
2022-11-29T17:13:09.221Z,74.4
2022-11-29T17:14:26.381Z,74.7
2022-11-29T17:15:42.991Z,74.7
2022-11-29T17:17:03.383Z,74.9
2022-11-29T17:18:20.055Z,75.1